Time;durP1;ratioP1;P1;durP2;ratioP2;P2;SDS_P1;SDS_P2;PMS_P1;PMS_P2;Temp;Humidity;BMP_temperature;BMP_pressure;BME280_temperature;BME280_humidity;BME280_pressure;Samples;Min_cycle;Max_cycle;Signal;HPM_P1;HPM_P2
2021/10/12 00:00:50;;;;;;;4.60;1.75;;;;;;;;;;5148740;27;20023;-73
2021/10/12 00:03:17;;;;;;;4.25;1.67;;;;;;;;;;5148565;27;20037;-72
2021/10/12 00:05:43;;;;;;;2.53;1.30;;;;;;;;;;5146635;27;20030;-72
2021/10/12 00:08:09;;;;;;;4.65;1.50;;;;;;;;;;5148475;27;20035;-72
2021/10/12 00:10:35;;;;;;;5.13;1.65;;;;;;;;;;5148229;27;20034;-73
2021/10/12 00:13:02;;;;;;;3.10;1.52;;;;;;;;;;5148365;27;20023;-72
2021/10/12 00:15:28;;;;;;;2.67;1.40;;;;;;;;;;5146928;27;20054;-72
2021/10/12 00:17:54;;;;;;;2.75;1.40;;;;;;;;;;5148471;27;20450;-72
2021/10/12 00:20:20;;;;;;;2.78;1.60;;;;;;;;;;5148710;27;20058;-72
2021/10/12 00:22:47;;;;;;;5.80;1.70;;;;;;;;;;5148256;27;20023;-72
2021/10/12 00:25:13;;;;;;;3.58;1.70;;;;;;;;;;5148288;27;20023;-72
2021/10/12 00:27:39;;;;;;;6.38;1.90;;;;;;;;;;5148196;27;20175;-72
2021/10/12 00:30:06;;;;;;;6.65;1.88;;;;;;;;;;5146829;27;20019;-72
2021/10/12 00:32:33;;;;;;;4.93;1.35;;;;;;;;;;5148447;27;20011;-72
2021/10/12 00:34:59;;;;;;;14.52;1.92;;;;;;;;;;5148135;27;20026;-72
2021/10/12 00:37:25;;;;;;;3.08;1.80;;;;;;;;;;5148410;27;20019;-72
2021/10/12 00:39:51;;;;;;;4.22;1.50;;;;;;;;;;5148190;27;20023;-72
2021/10/12 00:42:18;;;;;;;8.50;2.10;;;;;;;;;;5148251;27;20026;-72
2021/10/12 00:44:45;;;;;;;2.85;1.58;;;;;;;;;;5146809;27;20419;-72
2021/10/12 00:47:11;;;;;;;3.15;1.33;;;;;;;;;;5147913;27;20099;-72
2021/10/12 00:49:37;;;;;;;7.80;2.13;;;;;;;;;;5147973;27;20135;-72
2021/10/12 00:52:04;;;;;;;4.97;1.38;;;;;;;;;;5148106;27;20093;-72
2021/10/12 00:54:30;;;;;;;3.63;1.40;;;;;;;;;;5148005;27;20030;-72
2021/10/12 00:56:56;;;;;;;2.90;1.15;;;;;;;;;;5146098;27;20055;-72
2021/10/12 00:59:22;;;;;;;3.75;1.35;;;;;;;;;;5147685;27;20092;-72
2021/10/12 01:01:49;;;;;;;4.88;1.60;;;;;;;;;;5147628;27;20034;-72
2021/10/12 01:04:15;;;;;;;4.35;1.58;;;;;;;;;;5148036;27;20042;-72
2021/10/12 01:06:43;;;;;;;3.53;1.35;;;;;;;;;;5148383;27;20482;-73
2021/10/12 01:09:09;;;;;;;4.63;1.60;;;;;;;;;;5151525;27;20034;-72
2021/10/12 01:11:35;;;;;;;2.95;1.63;;;;;;;;;;5150470;27;20170;-72
2021/10/12 01:14:02;;;;;;;2.75;1.27;;;;;;;;;;5151182;27;20023;-72
2021/10/12 01:16:28;;;;;;;3.05;1.10;;;;;;;;;;5151710;27;20037;-72
2021/10/12 01:18:56;;;;;;;4.57;1.30;;;;;;;;;;5151696;27;20071;-72
2021/10/12 01:21:22;;;;;;;2.13;1.27;;;;;;;;;;5151395;27;20023;-72
2021/10/12 01:23:48;;;;;;;5.97;2.00;;;;;;;;;;5149700;27;20490;-72
2021/10/12 01:26:14;;;;;;;5.45;1.40;;;;;;;;;;5151482;27;20043;-72
2021/10/12 01:28:41;;;;;;;4.25;1.27;;;;;;;;;;5150993;27;20071;-73
2021/10/12 01:31:10;;;;;;;5.00;1.42;;;;;;;;;;5151157;27;20025;-72
2021/10/12 01:33:36;;;;;;;6.50;1.20;;;;;;;;;;5149346;27;20115;-72
2021/10/12 01:36:02;;;;;;;3.33;1.13;;;;;;;;;;5149519;27;20371;-72
2021/10/12 01:38:32;;;;;;;6.25;1.75;;;;;;;;;;5139647;27;20027;-72
2021/10/12 01:40:59;;;;;;;4.07;1.20;;;;;;;;;;5130469;27;20023;-72
2021/10/12 01:43:25;;;;;;;4.18;1.38;;;;;;;;;;5130151;27;20454;-73
2021/10/12 01:45:51;;;;;;;1.88;1.30;;;;;;;;;;5130153;27;20023;-72
2021/10/12 01:48:17;;;;;;;5.72;1.08;;;;;;;;;;5128417;27;20066;-73
2021/10/12 01:50:43;;;;;;;6.97;1.92;;;;;;;;;;5130208;27;20352;-72
2021/10/12 01:53:10;;;;;;;4.22;1.30;;;;;;;;;;5129908;27;20030;-72
2021/10/12 01:55:36;;;;;;;4.75;1.20;;;;;;;;;;5130231;27;20030;-72
2021/10/12 01:58:02;;;;;;;1.92;0.93;;;;;;;;;;5129420;27;20111;-73
2021/10/12 02:00:28;;;;;;;5.57;1.35;;;;;;;;;;5128518;27;20483;-72
2021/10/12 02:02:55;;;;;;;3.55;1.20;;;;;;;;;;5129467;27;20407;-72
2021/10/12 02:05:21;;;;;;;3.42;1.23;;;;;;;;;;5129733;27;20043;-72
2021/10/12 02:07:47;;;;;;;10.52;1.15;;;;;;;;;;5129824;27;20066;-72
2021/10/12 02:10:13;;;;;;;4.70;1.20;;;;;;;;;;5127997;27;20042;-72
2021/10/12 02:12:39;;;;;;;8.20;1.40;;;;;;;;;;5130118;27;20052;-72
2021/10/12 02:15:06;;;;;;;2.47;1.05;;;;;;;;;;5129190;27;20115;-72
2021/10/12 02:17:32;;;;;;;2.97;1.08;;;;;;;;;;5127819;27;20035;-72
2021/10/12 02:19:59;;;;;;;4.55;1.58;;;;;;;;;;5129606;27;20027;-72
2021/10/12 02:22:26;;;;;;;4.25;1.30;;;;;;;;;;5129296;27;20035;-73
2021/10/12 02:24:52;;;;;;;2.45;1.00;;;;;;;;;;5127716;27;20076;-72
2021/10/12 02:27:18;;;;;;;3.60;1.20;;;;;;;;;;5129364;27;20525;-72
2021/10/12 02:29:45;;;;;;;2.08;1.02;;;;;;;;;;5129326;27;20034;-72
2021/10/12 02:32:11;;;;;;;3.28;1.45;;;;;;;;;;5129131;27;20018;-72
2021/10/12 02:34:37;;;;;;;2.70;1.10;;;;;;;;;;5129426;27;20028;-72
2021/10/12 02:37:04;;;;;;;3.00;1.40;;;;;;;;;;5129321;27;20098;-72
2021/10/12 02:39:30;;;;;;;4.72;1.40;;;;;;;;;;5127775;27;20483;-72
2021/10/12 02:41:56;;;;;;;4.50;1.50;;;;;;;;;;5129373;27;20077;-72
2021/10/12 02:44:22;;;;;;;4.40;1.25;;;;;;;;;;5129232;27;20023;-72
2021/10/12 02:46:51;;;;;;;1.77;1.10;;;;;;;;;;5128819;27;20497;-73
2021/10/12 02:49:17;;;;;;;4.00;1.08;;;;;;;;;;5127683;27;20035;-72
2021/10/12 02:51:44;;;;;;;3.55;1.27;;;;;;;;;;5128828;27;20031;-73
2021/10/12 02:54:10;;;;;;;6.00;1.48;;;;;;;;;;5128831;27;20385;-73
2021/10/12 02:56:36;;;;;;;3.83;1.23;;;;;;;;;;5126919;27;20027;-72
2021/10/12 02:59:02;;;;;;;3.50;1.27;;;;;;;;;;5128801;27;20047;-72
2021/10/12 03:01:29;;;;;;;1.98;0.93;;;;;;;;;;5128796;27;20281;-72
2021/10/12 03:03:55;;;;;;;2.42;1.33;;;;;;;;;;5126486;27;20073;-72
2021/10/12 03:06:21;;;;;;;2.83;1.23;;;;;;;;;;5125885;27;20015;-73
2021/10/12 03:08:47;;;;;;;8.35;1.20;;;;;;;;;;5124762;27;20038;-72
2021/10/12 03:11:13;;;;;;;3.47;1.95;;;;;;;;;;5125914;27;20166;-73
2021/10/12 03:13:39;;;;;;;4.20;1.60;;;;;;;;;;5125581;27;20268;-72
2021/10/12 03:16:07;;;;;;;2.60;1.17;;;;;;;;;;5126118;27;20019;-72
2021/10/12 03:18:34;;;;;;;4.25;1.10;;;;;;;;;;5124294;27;20026;-72
2021/10/12 03:21:00;;;;;;;4.45;1.17;;;;;;;;;;5124435;27;20422;-72
2021/10/12 03:23:27;;;;;;;4.80;1.25;;;;;;;;;;5125866;27;20026;-73
2021/10/12 03:25:53;;;;;;;3.38;1.10;;;;;;;;;;5125824;27;20023;-72
2021/10/12 03:28:20;;;;;;;7.00;1.60;;;;;;;;;;5124348;27;20035;-72
2021/10/12 03:30:46;;;;;;;2.83;1.17;;;;;;;;;;5125095;27;20408;-72
2021/10/12 03:33:14;;;;;;;6.85;1.70;;;;;;;;;;5125672;27;20655;-72
2021/10/12 03:35:46;;;;;;;3.83;1.17;;;;;;;;;;5125800;27;20027;-72
2021/10/12 03:38:12;;;;;;;2.22;1.10;;;;;;;;;;5125714;27;20348;-72
2021/10/12 03:40:38;;;;;;;1.85;1.13;;;;;;;;;;5125404;27;20112;-72
2021/10/12 03:43:04;;;;;;;2.70;1.10;;;;;;;;;;5124481;27;20076;-72
2021/10/12 03:45:30;;;;;;;4.57;1.30;;;;;;;;;;5125650;27;20019;-73
2021/10/12 03:47:56;;;;;;;2.35;1.40;;;;;;;;;;5124985;27;20030;-72
2021/10/12 03:50:22;;;;;;;3.75;1.50;;;;;;;;;;5125489;27;20037;-72
2021/10/12 03:52:49;;;;;;;5.38;1.25;;;;;;;;;;5123613;27;20027;-73
2021/10/12 03:55:15;;;;;;;5.13;1.30;;;;;;;;;;5125548;27;20023;-73
2021/10/12 03:57:41;;;;;;;2.47;1.08;;;;;;;;;;5125357;27;20035;-73
2021/10/12 04:00:09;;;;;;;4.85;1.58;;;;;;;;;;5125049;27;20146;-72
2021/10/12 04:02:35;;;;;;;3.55;1.65;;;;;;;;;;5123633;27;20026;-72
2021/10/12 04:05:01;;;;;;;3.55;1.52;;;;;;;;;;5125423;28;20038;-72
2021/10/12 04:07:28;;;;;;;3.33;1.17;;;;;;;;;;5125770;28;20922;-72
2021/10/12 04:09:54;;;;;;;2.13;1.50;;;;;;;;;;5125448;28;20544;-72
2021/10/12 04:12:20;;;;;;;4.53;1.27;;;;;;;;;;5125445;27;20016;-72
2021/10/12 04:14:46;;;;;;;1.90;1.27;;;;;;;;;;5122302;28;20038;-72
2021/10/12 04:17:13;;;;;;;2.17;1.35;;;;;;;;;;5125161;28;20035;-72
2021/10/12 04:19:39;;;;;;;2.95;1.48;;;;;;;;;;5125371;28;20027;-72
2021/10/12 04:22:05;;;;;;;4.65;1.77;;;;;;;;;;5125361;28;20027;-72
2021/10/12 04:24:31;;;;;;;4.10;1.40;;;;;;;;;;5123628;28;20027;-73
2021/10/12 04:26:57;;;;;;;2.47;1.33;;;;;;;;;;5124832;28;20033;-72
2021/10/12 04:29:23;;;;;;;3.83;1.48;;;;;;;;;;5125139;28;20030;-72
2021/10/12 04:31:50;;;;;;;4.38;1.60;;;;;;;;;;5124947;28;20458;-72
2021/10/12 04:34:16;;;;;;;3.70;1.55;;;;;;;;;;5124109;28;20471;-72
2021/10/12 04:36:42;;;;;;;3.60;1.40;;;;;;;;;;5124393;28;20019;-72
2021/10/12 04:39:08;;;;;;;5.93;1.90;;;;;;;;;;5124691;28;20047;-72
2021/10/12 04:41:34;;;;;;;2.65;1.65;;;;;;;;;;5127252;27;20060;-72
2021/10/12 04:44:02;;;;;;;4.20;1.52;;;;;;;;;;5129543;27;20170;-72
2021/10/12 04:46:28;;;;;;;5.05;1.63;;;;;;;;;;5128825;27;20023;-72
2021/10/12 04:48:54;;;;;;;3.80;1.85;;;;;;;;;;5128605;27;20546;-72
2021/10/12 04:51:20;;;;;;;4.60;1.73;;;;;;;;;;5127491;27;20027;-72
2021/10/12 04:53:46;;;;;;;3.20;1.58;;;;;;;;;;5128599;27;20027;-72
2021/10/12 04:56:12;;;;;;;2.63;1.65;;;;;;;;;;5128877;27;20027;-72
2021/10/12 04:58:40;;;;;;;5.85;1.70;;;;;;;;;;5128768;27;20054;-72
2021/10/12 05:01:06;;;;;;;4.18;1.70;;;;;;;;;;5128346;27;20023;-72
2021/10/12 05:03:32;;;;;;;4.53;1.92;;;;;;;;;;5126632;27;20030;-72
2021/10/12 05:05:58;;;;;;;4.13;2.15;;;;;;;;;;5128466;27;20030;-72
2021/10/12 05:08:24;;;;;;;5.20;2.28;;;;;;;;;;5128485;27;20031;-72
2021/10/12 05:10:50;;;;;;;6.07;1.80;;;;;;;;;;5127043;27;20031;-72
2021/10/12 05:13:17;;;;;;;4.75;2.10;;;;;;;;;;5127720;27;20031;-72
2021/10/12 05:15:47;;;;;;;4.82;1.92;;;;;;;;;;5127982;27;20027;-72
2021/10/12 05:18:19;;;;;;;3.92;2.13;;;;;;;;;;5127052;27;20121;-72
2021/10/12 05:20:46;;;;;;;3.20;1.90;;;;;;;;;;5128149;27;20047;-72
2021/10/12 05:23:13;;;;;;;7.10;2.00;;;;;;;;;;5126427;27;20426;-72
2021/10/12 05:25:39;;;;;;;5.35;2.20;;;;;;;;;;5127993;27;20019;-72
2021/10/12 05:28:05;;;;;;;7.80;2.30;;;;;;;;;;5127967;27;20031;-72
2021/10/12 05:30:34;;;;;;;5.75;2.45;;;;;;;;;;5126475;27;20404;-72
2021/10/12 05:33:00;;;;;;;4.30;2.33;;;;;;;;;;5127674;27;20032;-73
2021/10/12 05:35:26;;;;;;;3.15;2.28;;;;;;;;;;5127828;27;20019;-72
2021/10/12 05:37:52;;;;;;;5.60;2.55;;;;;;;;;;5127933;27;20542;-72
2021/10/12 05:40:18;;;;;;;4.20;2.42;;;;;;;;;;5127797;27;20064;-73
2021/10/12 05:42:45;;;;;;;5.47;2.45;;;;;;;;;;5128385;27;20031;-73
2021/10/12 05:45:11;;;;;;;4.03;2.42;;;;;;;;;;5126375;27;20019;-73
2021/10/12 05:47:37;;;;;;;3.95;2.53;;;;;;;;;;5127496;27;20035;-73
2021/10/12 05:50:03;;;;;;;5.63;2.50;;;;;;;;;;5127711;27;20031;-73
2021/10/12 05:52:31;;;;;;;5.93;2.80;;;;;;;;;;5127184;27;20047;-73
2021/10/12 05:55:10;;;;;;;5.68;2.33;;;;;;;;;;5127893;27;20050;-73
2021/10/12 05:58:26;;;;;;;3.25;2.28;;;;;;;;;;5127044;27;20043;-73
2021/10/12 06:00:26;;;;;;;4.00;2.47;;;;;;;;;;5120197;27;20039;-72
2021/10/12 06:02:52;;;;;;;6.57;3.13;;;;;;;;;;5127288;27;20016;-73
2021/10/12 06:05:18;;;;;;;4.10;2.85;;;;;;;;;;5127115;27;20083;-73
2021/10/12 06:07:45;;;;;;;4.25;2.70;;;;;;;;;;5127591;27;20027;-73
2021/10/12 06:10:11;;;;;;;6.60;2.70;;;;;;;;;;5126201;27;20859;-73
2021/10/12 06:12:37;;;;;;;7.05;2.55;;;;;;;;;;5125756;27;20034;-72
2021/10/12 06:15:04;;;;;;;6.82;2.45;;;;;;;;;;5126831;27;20092;-73
2021/10/12 06:17:30;;;;;;;5.53;2.72;;;;;;;;;;5127348;27;20111;-73
2021/10/12 06:19:56;;;;;;;4.40;2.78;;;;;;;;;;5127092;27;20110;-72
2021/10/12 06:22:22;;;;;;;6.88;2.63;;;;;;;;;;5127289;27;20231;-73
2021/10/12 06:24:48;;;;;;;7.18;2.63;;;;;;;;;;5125087;27;20020;-72
2021/10/12 06:27:14;;;;;;;4.88;2.70;;;;;;;;;;5126438;27;20031;-72
2021/10/12 06:29:40;;;;;;;5.15;2.92;;;;;;;;;;5126855;27;20042;-73
2021/10/12 06:32:07;;;;;;;6.38;2.97;;;;;;;;;;5127117;27;20155;-72
2021/10/12 06:34:33;;;;;;;5.65;2.90;;;;;;;;;;5127203;27;20029;-72
2021/10/12 06:36:59;;;;;;;6.20;2.97;;;;;;;;;;5126770;27;20029;-73
2021/10/12 06:39:25;;;;;;;5.18;2.60;;;;;;;;;;5125221;27;20021;-72
2021/10/12 06:41:51;;;;;;;5.20;3.30;;;;;;;;;;5126508;27;20019;-73
2021/10/12 06:44:17;;;;;;;6.68;3.22;;;;;;;;;;5126745;27;20019;-73
2021/10/12 06:46:43;;;;;;;5.00;2.47;;;;;;;;;;5126815;27;20367;-72
2021/10/12 06:49:10;;;;;;;3.60;2.30;;;;;;;;;;5126633;27;20558;-72
2021/10/12 06:51:36;;;;;;;4.78;2.90;;;;;;;;;;5126253;27;20046;-72
2021/10/12 06:54:02;;;;;;;7.13;3.00;;;;;;;;;;5124514;27;20042;-73
2021/10/12 06:56:28;;;;;;;4.32;2.90;;;;;;;;;;5126523;27;20031;-73
2021/10/12 06:58:54;;;;;;;5.90;4.13;;;;;;;;;;5126081;27;20047;-73
2021/10/12 07:01:21;;;;;;;4.80;3.05;;;;;;;;;;5125867;27;20031;-73
2021/10/12 07:03:47;;;;;;;5.00;2.72;;;;;;;;;;5125257;27;20023;-73
2021/10/12 07:06:13;;;;;;;4.82;2.35;;;;;;;;;;5124624;27;20030;-73
2021/10/12 07:08:39;;;;;;;5.03;2.50;;;;;;;;;;5126066;27;20057;-73
2021/10/12 07:11:06;;;;;;;4.65;2.50;;;;;;;;;;5125977;27;20372;-72
2021/10/12 07:13:32;;;;;;;5.72;2.60;;;;;;;;;;5141033;27;20035;-72
2021/10/12 07:15:59;;;;;;;4.70;2.38;;;;;;;;;;5145431;27;20025;-73
2021/10/12 07:18:25;;;;;;;5.20;2.67;;;;;;;;;;5146778;27;20926;-73
2021/10/12 07:20:51;;;;;;;4.50;2.92;;;;;;;;;;5147014;27;20492;-73
2021/10/12 07:23:18;;;;;;;6.10;2.72;;;;;;;;;;5144480;27;20027;-73
2021/10/12 07:25:50;;;;;;;4.28;2.88;;;;;;;;;;5146502;27;20019;-73
2021/10/12 07:28:17;;;;;;;5.93;2.58;;;;;;;;;;5146322;27;20390;-73
2021/10/12 07:30:43;;;;;;;3.65;2.67;;;;;;;;;;5146994;27;20050;-72
2021/10/12 07:33:09;;;;;;;4.00;2.70;;;;;;;;;;5146448;27;20022;-73
2021/10/12 07:35:35;;;;;;;5.20;2.50;;;;;;;;;;5144344;27;20030;-72
2021/10/12 07:38:01;;;;;;;5.10;2.58;;;;;;;;;;5146375;27;20023;-73
2021/10/12 07:40:28;;;;;;;4.60;3.25;;;;;;;;;;5146365;27;20498;-72
2021/10/12 07:42:54;;;;;;;8.10;2.97;;;;;;;;;;5146702;27;20031;-73
2021/10/12 07:45:20;;;;;;;5.07;2.92;;;;;;;;;;5144821;27;20476;-73
2021/10/12 07:47:46;;;;;;;5.68;3.15;;;;;;;;;;5146214;27;20068;-73
2021/10/12 07:50:13;;;;;;;4.60;3.22;;;;;;;;;;5145712;27;20030;-72
2021/10/12 07:52:39;;;;;;;4.22;2.88;;;;;;;;;;5146157;27;20381;-72
2021/10/12 07:57:32;;;;;;;3.60;2.50;;;;;;;;;;5145724;27;20098;-72
2021/10/12 07:59:58;;;;;;;3.85;2.78;;;;;;;;;;5136388;27;20473;-73
2021/10/12 08:02:24;;;;;;;6.22;2.92;;;;;;;;;;5145272;27;20469;-73
2021/10/12 08:04:50;;;;;;;4.78;2.97;;;;;;;;;;5145259;27;20192;-73
2021/10/12 08:07:16;;;;;;;7.38;2.63;;;;;;;;;;5125748;27;20034;-73
2021/10/12 08:09:42;;;;;;;3.38;2.63;;;;;;;;;;5125258;27;20035;-73
2021/10/12 08:12:09;;;;;;;3.85;2.63;;;;;;;;;;5123414;27;20030;-72
2021/10/12 08:14:42;;;;;;;5.95;2.80;;;;;;;;;;5125271;27;20075;-73
2021/10/12 08:17:08;;;;;;;4.05;2.38;;;;;;;;;;5128433;27;20027;-72
2021/10/12 08:19:34;;;;;;;4.75;2.83;;;;;;;;;;5129403;27;20019;-72
2021/10/12 08:22:00;;;;;;;4.07;2.88;;;;;;;;;;5129025;27;20031;-72
2021/10/12 08:24:26;;;;;;;5.05;2.60;;;;;;;;;;5127520;27;20433;-73
2021/10/12 08:26:53;;;;;;;5.03;2.65;;;;;;;;;;5126071;27;20051;-72
2021/10/12 08:29:19;;;;;;;3.65;2.78;;;;;;;;;;5127963;27;20027;-73
2021/10/12 08:31:46;;;;;;;6.18;2.55;;;;;;;;;;5127634;27;20067;-72
2021/10/12 08:34:13;;;;;;;4.50;2.20;;;;;;;;;;5127724;27;20474;-73
2021/10/12 08:36:40;;;;;;;7.25;2.60;;;;;;;;;;5126610;27;20027;-72
2021/10/12 08:39:07;;;;;;;7.72;2.70;;;;;;;;;;5129392;27;20049;-73
2021/10/12 08:41:37;;;;;;;6.57;2.58;;;;;;;;;;5128880;27;20029;-72
2021/10/12 08:44:03;;;;;;;6.63;2.47;;;;;;;;;;5129212;27;20214;-73
2021/10/12 08:46:30;;;;;;;5.13;2.55;;;;;;;;;;5129078;27;20475;-72
2021/10/12 08:48:59;;;;;;;5.07;2.47;;;;;;;;;;5127175;27;20027;-72
2021/10/12 08:51:26;;;;;;;3.72;2.60;;;;;;;;;;5129136;27;20429;-72
2021/10/12 08:53:52;;;;;;;3.40;2.40;;;;;;;;;;5128482;27;20019;-72
2021/10/12 08:56:18;;;;;;;6.50;2.60;;;;;;;;;;5127521;27;20023;-72
2021/10/12 08:58:44;;;;;;;4.85;2.55;;;;;;;;;;5128583;27;20066;-72
2021/10/12 09:01:14;;;;;;;7.32;2.60;;;;;;;;;;5128855;27;20111;-72
2021/10/12 09:03:45;;;;;;;5.25;2.10;;;;;;;;;;5128812;27;20015;-73
2021/10/12 09:06:12;;;;;;;4.72;2.60;;;;;;;;;;5128400;27;20405;-73
2021/10/12 09:08:39;;;;;;;3.88;2.00;;;;;;;;;;5128926;27;20038;-73
2021/10/12 09:11:08;;;;;;;4.95;2.70;;;;;;;;;;5127180;27;20106;-73
2021/10/12 09:13:44;;;;;;;8.70;2.88;;;;;;;;;;5128084;27;20509;-72
2021/10/12 09:16:17;;;;;;;7.05;2.75;;;;;;;;;;5128443;27;20543;-73
2021/10/12 09:18:52;;;;;;;4.18;2.20;;;;;;;;;;5128330;27;20369;-73
2021/10/12 09:21:29;;;;;;;5.03;2.58;;;;;;;;;;5126707;27;20015;-72
2021/10/12 09:24:11;;;;;;;13.63;2.90;;;;;;;;;;5128048;27;20035;-72
2021/10/12 09:26:38;;;;;;;6.28;2.88;;;;;;;;;;5127456;27;20062;-72
2021/10/12 09:29:09;;;;;;;5.25;2.60;;;;;;;;;;5125633;27;20039;-72
2021/10/12 09:31:39;;;;;;;5.53;2.65;;;;;;;;;;5128150;27;20054;-72
2021/10/12 09:34:07;;;;;;;5.45;2.78;;;;;;;;;;5128034;27;20031;-73
2021/10/12 09:36:36;;;;;;;2.90;2.00;;;;;;;;;;5128006;27;20076;-72
2021/10/12 09:39:02;;;;;;;6.32;2.50;;;;;;;;;;5127808;27;20030;-72
2021/10/12 09:41:29;;;;;;;4.82;2.50;;;;;;;;;;5128002;27;20027;-72
2021/10/12 09:44:18;;;;;;;4.50;2.58;;;;;;;;;;5126163;27;20040;-72
2021/10/12 09:46:45;;;;;;;7.15;2.55;;;;;;;;;;5119468;27;20581;-73
2021/10/12 09:49:16;;;;;;;4.40;2.35;;;;;;;;;;5127455;27;20110;-73
2021/10/12 09:51:55;;;;;;;5.03;2.57;;;;;;;;;;5127650;27;20019;-72
2021/10/12 09:54:25;;;;;;;2.95;2.33;;;;;;;;;;5126750;27;20398;-72
2021/10/12 09:56:51;;;;;;;5.78;2.28;;;;;;;;;;5127128;27;20019;-72
2021/10/12 09:59:18;;;;;;;4.28;2.63;;;;;;;;;;5127085;27;20500;-72
2021/10/12 10:01:46;;;;;;;5.57;2.55;;;;;;;;;;5127400;27;20030;-73
2021/10/12 10:04:14;;;;;;;5.53;2.58;;;;;;;;;;5127650;27;20067;-73
2021/10/12 10:06:42;;;;;;;3.20;2.30;;;;;;;;;;5127373;27;20028;-72
2021/10/12 10:09:09;;;;;;;5.28;2.72;;;;;;;;;;5125919;27;20036;-73
2021/10/12 10:11:38;;;;;;;4.68;2.75;;;;;;;;;;5127359;27;20054;-72
2021/10/12 10:14:06;;;;;;;3.92;2.47;;;;;;;;;;5126928;27;20066;-73
2021/10/12 10:16:32;;;;;;;7.90;3.00;;;;;;;;;;5127036;27;20041;-72
2021/10/12 10:18:59;;;;;;;5.05;2.80;;;;;;;;;;5127035;27;20043;-72
2021/10/12 10:21:26;;;;;;;4.30;2.60;;;;;;;;;;5125805;27;20192;-72
2021/10/12 10:24:01;;;;;;;3.28;2.83;;;;;;;;;;5126882;27;20399;-72
2021/10/12 10:26:27;;;;;;;3.90;2.40;;;;;;;;;;5127290;27;20015;-72
2021/10/12 10:28:55;;;;;;;4.75;2.80;;;;;;;;;;5126902;27;20383;-72
2021/10/12 10:31:41;;;;;;;5.65;2.80;;;;;;;;;;5125204;27;20475;-72
2021/10/12 10:34:26;;;;;;;3.83;2.30;;;;;;;;;;5126874;27;20019;-72
2021/10/12 10:37:12;;;;;;;4.50;2.80;;;;;;;;;;5126881;27;20027;-72
2021/10/12 10:39:39;;;;;;;6.60;2.90;;;;;;;;;;5126346;27;20286;-72
2021/10/12 10:42:05;;;;;;;5.22;2.40;;;;;;;;;;5125396;27;20431;-73
2021/10/12 10:45:00;;;;;;;5.03;3.00;;;;;;;;;;5126879;27;20039;-73
2021/10/12 10:47:42;;;;;;;6.63;2.78;;;;;;;;;;5112638;27;20031;-73
2021/10/12 10:50:11;;;;;;;4.32;2.60;;;;;;;;;;5126450;27;20118;-73
2021/10/12 10:52:47;;;;;;;3.80;2.20;;;;;;;;;;5124918;27;20230;-73
2021/10/12 10:55:26;;;;;;;5.53;2.78;;;;;;;;;;5126337;27;20472;-72
2021/10/12 10:58:01;;;;;;;5.05;2.75;;;;;;;;;;5125972;27;20218;-72
2021/10/12 11:00:28;;;;;;;5.05;2.58;;;;;;;;;;5126088;27;20027;-73
2021/10/12 11:02:55;;;;;;;6.55;2.60;;;;;;;;;;5124566;27;20027;-73
2021/10/12 11:05:30;;;;;;;4.38;2.50;;;;;;;;;;5126378;27;20019;-72
2021/10/12 11:08:08;;;;;;;3.42;2.40;;;;;;;;;;5126047;27;20072;-73
2021/10/12 11:10:34;;;;;;;6.05;2.75;;;;;;;;;;5124347;27;20175;-73
2021/10/12 11:13:00;;;;;;;5.30;2.25;;;;;;;;;;5126055;27;20138;-72
2021/10/12 11:15:27;;;;;;;5.95;2.58;;;;;;;;;;5126237;27;20027;-73
2021/10/12 11:18:09;;;;;;;6.45;2.75;;;;;;;;;;5125805;27;20302;-72
2021/10/12 11:20:55;;;;;;;4.68;2.50;;;;;;;;;;5124574;27;20031;-72
2021/10/12 11:23:33;;;;;;;4.80;2.85;;;;;;;;;;5125847;27;20467;-72
2021/10/12 11:26:00;;;;;;;5.07;2.60;;;;;;;;;;5125553;27;20023;-73
2021/10/12 11:28:27;;;;;;;3.10;2.40;;;;;;;;;;5124202;27;20074;-73
2021/10/12 11:30:54;;;;;;;3.92;2.00;;;;;;;;;;5125905;27;20019;-72
2021/10/12 11:33:33;;;;;;;3.67;2.58;;;;;;;;;;5125725;27;20035;-72
2021/10/12 11:36:00;;;;;;;4.63;2.40;;;;;;;;;;5125750;27;20027;-72
2021/10/12 11:38:35;;;;;;;7.68;2.25;;;;;;;;;;5124035;27;20022;-72
2021/10/12 11:41:12;;;;;;;3.67;2.60;;;;;;;;;;5125571;27;20031;-72
2021/10/12 11:43:40;;;;;;;3.95;2.63;;;;;;;;;;5124858;27;20415;-73
2021/10/12 11:46:06;;;;;;;4.03;2.58;;;;;;;;;;5125754;27;20474;-73
2021/10/12 11:48:39;;;;;;;3.35;2.53;;;;;;;;;;5123622;27;20360;-72
2021/10/12 11:51:24;;;;;;;3.95;2.42;;;;;;;;;;5124785;27;20034;-73
2021/10/12 11:53:52;;;;;;;5.43;2.63;;;;;;;;;;5125409;27;20554;-72
2021/10/12 11:56:20;;;;;;;2.72;2.25;;;;;;;;;;5125335;27;20030;-72
2021/10/12 11:58:46;;;;;;;5.90;2.42;;;;;;;;;;5125204;27;20039;-73
2021/10/12 12:01:16;;;;;;;3.72;2.47;;;;;;;;;;5123493;27;20197;-73
2021/10/12 12:03:42;;;;;;;3.45;2.45;;;;;;;;;;5124743;27;20020;-73
2021/10/12 12:06:09;;;;;;;5.82;3.10;;;;;;;;;;5125777;27;20176;-73
2021/10/12 12:08:38;;;;;;;5.95;2.40;;;;;;;;;;5125096;27;20777;-73
2021/10/12 12:11:04;;;;;;;5.00;2.88;;;;;;;;;;5125436;27;20038;-72
2021/10/12 12:13:32;;;;;;;5.50;2.88;;;;;;;;;;5125378;27;20040;-73
2021/10/12 12:15:58;;;;;;;3.60;2.40;;;;;;;;;;5123734;27;20055;-72
2021/10/12 12:18:27;;;;;;;4.25;2.85;;;;;;;;;;5125550;27;20019;-73
2021/10/12 12:20:55;;;;;;;4.32;2.92;;;;;;;;;;5125376;27;20080;-73
2021/10/12 12:23:33;;;;;;;4.25;2.65;;;;;;;;;;5125138;27;20543;-73
2021/10/12 12:25:59;;;;;;;3.75;2.60;;;;;;;;;;5125125;27;20110;-73
2021/10/12 12:28:26;;;;;;;5.28;3.00;;;;;;;;;;5124272;27;20038;-72
2021/10/12 12:30:52;;;;;;;4.47;2.60;;;;;;;;;;5124987;27;20102;-73
2021/10/12 12:33:18;;;;;;;3.15;2.35;;;;;;;;;;5125359;27;20024;-72
2021/10/12 12:35:54;;;;;;;4.85;2.42;;;;;;;;;;5124760;27;20406;-72
2021/10/12 12:38:24;;;;;;;4.13;2.60;;;;;;;;;;5123490;27;20415;-72
2021/10/12 12:40:51;;;;;;;5.03;2.80;;;;;;;;;;5125506;27;20063;-72
2021/10/12 12:43:20;;;;;;;7.00;3.13;;;;;;;;;;5125294;27;20062;-73
2021/10/12 12:45:47;;;;;;;3.65;2.60;;;;;;;;;;5125241;27;20038;-73
2021/10/12 12:48:23;;;;;;;4.18;2.70;;;;;;;;;;5124902;27;20011;-73
2021/10/12 12:50:59;;;;;;;7.40;2.88;;;;;;;;;;5123332;27;20037;-73
2021/10/12 12:53:42;;;;;;;4.97;2.85;;;;;;;;;;5124891;27;20023;-73
2021/10/12 12:56:16;;;;;;;6.15;3.10;;;;;;;;;;5125068;27;20023;-73
2021/10/12 12:58:43;;;;;;;5.97;3.28;;;;;;;;;;5124343;27;20520;-72
2021/10/12 13:01:13;;;;;;;4.38;2.83;;;;;;;;;;5124804;27;20106;-73
2021/10/12 13:03:39;;;;;;;4.07;2.63;;;;;;;;;;5127372;27;20043;-72
2021/10/12 13:06:06;;;;;;;6.25;3.22;;;;;;;;;;5128536;27;20047;-73
2021/10/12 13:08:32;;;;;;;7.57;3.13;;;;;;;;;;5128255;27;20043;-73
2021/10/12 13:10:59;;;;;;;4.80;2.60;;;;;;;;;;5128923;27;20564;-73
2021/10/12 13:13:25;;;;;;;4.40;2.80;;;;;;;;;;5128386;27;20099;-72
2021/10/12 13:15:51;;;;;;;6.47;3.05;;;;;;;;;;5126795;27;20502;-72
2021/10/12 13:18:19;;;;;;;5.00;2.80;;;;;;;;;;5128315;27;20019;-73
2021/10/12 13:20:45;;;;;;;5.18;2.67;;;;;;;;;;5128668;27;20043;-72
2021/10/12 13:23:11;;;;;;;4.97;2.45;;;;;;;;;;5127838;27;20027;-72
2021/10/12 13:25:37;;;;;;;6.20;2.70;;;;;;;;;;5128001;27;20023;-72
2021/10/12 13:28:04;;;;;;;4.47;2.50;;;;;;;;;;5128117;27;20064;-73
2021/10/12 13:30:30;;;;;;;5.50;2.65;;;;;;;;;;5126474;27;20034;-73
2021/10/12 13:32:56;;;;;;;6.05;3.13;;;;;;;;;;5127852;27;20022;-72
2021/10/12 13:35:22;;;;;;;3.85;2.67;;;;;;;;;;5128075;27;20081;-72
2021/10/12 13:37:49;;;;;;;4.40;2.85;;;;;;;;;;5127769;27;20042;-72
2021/10/12 13:40:15;;;;;;;4.57;2.95;;;;;;;;;;5126216;27;20031;-73
2021/10/12 13:42:42;;;;;;;5.90;3.20;;;;;;;;;;5127452;27;20027;-72
2021/10/12 13:45:12;;;;;;;5.55;3.10;;;;;;;;;;5128067;27;20056;-72
2021/10/12 13:47:39;;;;;;;3.88;2.80;;;;;;;;;;5128258;27;20036;-73
2021/10/12 13:50:05;;;;;;;4.70;2.75;;;;;;;;;;5126299;27;20432;-72
2021/10/12 13:52:31;;;;;;;4.82;2.80;;;;;;;;;;5127674;27;20106;-73
2021/10/12 13:55:00;;;;;;;4.15;2.60;;;;;;;;;;5127822;27;20023;-73
2021/10/12 13:57:29;;;;;;;6.75;2.90;;;;;;;;;;5126974;27;20484;-72
2021/10/12 13:59:56;;;;;;;3.42;2.47;;;;;;;;;;5127679;27;20143;-73
2021/10/12 14:02:22;;;;;;;6.13;3.90;;;;;;;;;;5126315;27;20023;-73
2021/10/12 14:04:49;;;;;;;5.03;2.40;;;;;;;;;;5128160;27;20030;-73
2021/10/12 14:07:15;;;;;;;5.18;2.75;;;;;;;;;;5127577;27;20027;-73
2021/10/12 14:09:47;;;;;;;4.43;2.53;;;;;;;;;;5127093;27;20039;-72
2021/10/12 14:12:14;;;;;;;3.83;2.80;;;;;;;;;;5125598;27;20023;-72
2021/10/12 14:14:40;;;;;;;5.22;2.83;;;;;;;;;;5126748;27;20375;-73
2021/10/12 14:17:06;;;;;;;4.50;2.58;;;;;;;;;;5126900;27;20502;-72
2021/10/12 14:19:32;;;;;;;3.50;2.63;;;;;;;;;;5126814;27;20031;-73
2021/10/12 14:21:58;;;;;;;8.65;2.92;;;;;;;;;;5125464;27;20035;-72
2021/10/12 14:24:24;;;;;;;6.65;2.30;;;;;;;;;;5126697;27;20465;-73
2021/10/12 14:26:51;;;;;;;5.80;3.08;;;;;;;;;;5126744;27;20071;-72
2021/10/12 14:29:17;;;;;;;5.97;2.70;;;;;;;;;;5126735;27;20570;-72
2021/10/12 14:31:43;;;;;;;5.30;2.55;;;;;;;;;;5125058;27;20031;-72
2021/10/12 14:34:09;;;;;;;4.63;2.70;;;;;;;;;;5126588;27;20015;-73
2021/10/12 14:36:35;;;;;;;3.75;2.60;;;;;;;;;;5126784;27;20027;-72
2021/10/12 14:39:01;;;;;;;4.63;2.50;;;;;;;;;;5126189;27;20015;-72
2021/10/12 14:41:27;;;;;;;4.60;2.58;;;;;;;;;;5126658;27;20046;-73
2021/10/12 14:43:54;;;;;;;3.47;2.35;;;;;;;;;;5125435;27;20030;-73
2021/10/12 14:46:20;;;;;;;6.97;3.03;;;;;;;;;;5126539;27;20386;-72
2021/10/12 14:48:46;;;;;;;6.18;3.10;;;;;;;;;;5126249;27;20027;-72